sensor_id;sensor_type;location;lat;lon;timestamp;P1;durP1;ratioP1;P2;durP2;ratioP2
18376;SDS011;9315;52.624;13.544;2023-12-20T00:02:25;22.90;;;9.37;;
18376;SDS011;9315;52.624;13.544;2023-12-20T00:04:52;21.13;;;9.10;;
18376;SDS011;9315;52.624;13.544;2023-12-20T00:07:20;17.13;;;7.97;;
18376;SDS011;9315;52.624;13.544;2023-12-20T00:09:47;20.00;;;8.40;;
18376;SDS011;9315;52.624;13.544;2023-12-20T00:12:15;20.00;;;8.73;;
18376;SDS011;9315;52.624;13.544;2023-12-20T00:14:42;21.00;;;9.13;;
18376;SDS011;9315;52.624;13.544;2023-12-20T00:17:10;17.07;;;8.13;;
18376;SDS011;9315;52.624;13.544;2023-12-20T00:19:37;21.37;;;8.77;;
18376;SDS011;9315;52.624;13.544;2023-12-20T00:22:04;22.60;;;9.80;;
18376;SDS011;9315;52.624;13.544;2023-12-20T00:24:32;21.90;;;9.40;;
18376;SDS011;9315;52.624;13.544;2023-12-20T00:27:00;17.50;;;8.80;;
18376;SDS011;9315;52.624;13.544;2023-12-20T00:29:27;17.97;;;8.03;;
18376;SDS011;9315;52.624;13.544;2023-12-20T00:31:54;21.17;;;9.20;;
18376;SDS011;9315;52.624;13.544;2023-12-20T00:34:22;19.30;;;9.07;;
18376;SDS011;9315;52.624;13.544;2023-12-20T00:36:49;20.20;;;8.93;;
18376;SDS011;9315;52.624;13.544;2023-12-20T00:39:17;23.77;;;9.97;;
18376;SDS011;9315;52.624;13.544;2023-12-20T00:41:44;20.07;;;9.63;;
18376;SDS011;9315;52.624;13.544;2023-12-20T00:44:12;20.37;;;8.57;;
18376;SDS011;9315;52.624;13.544;2023-12-20T00:46:39;22.27;;;9.03;;
18376;SDS011;9315;52.624;13.544;2023-12-20T00:49:07;19.20;;;8.03;;
18376;SDS011;9315;52.624;13.544;2023-12-20T00:51:34;18.03;;;8.13;;
18376;SDS011;9315;52.624;13.544;2023-12-20T00:54:02;29.27;;;9.93;;
18376;SDS011;9315;52.624;13.544;2023-12-20T00:56:29;21.20;;;9.33;;
18376;SDS011;9315;52.624;13.544;2023-12-20T00:58:57;23.33;;;9.37;;
18376;SDS011;9315;52.624;13.544;2023-12-20T01:01:24;20.30;;;8.37;;
18376;SDS011;9315;52.624;13.544;2023-12-20T01:03:52;18.97;;;8.60;;
18376;SDS011;9315;52.624;13.544;2023-12-20T01:06:19;23.10;;;8.97;;
18376;SDS011;9315;52.624;13.544;2023-12-20T01:08:47;17.37;;;7.70;;
18376;SDS011;9315;52.624;13.544;2023-12-20T01:11:14;19.13;;;8.40;;
18376;SDS011;9315;52.624;13.544;2023-12-20T01:13:42;17.90;;;8.17;;
18376;SDS011;9315;52.624;13.544;2023-12-20T01:16:12;17.73;;;8.33;;
18376;SDS011;9315;52.624;13.544;2023-12-20T01:18:40;17.17;;;8.13;;
18376;SDS011;9315;52.624;13.544;2023-12-20T01:21:07;17.73;;;8.27;;
18376;SDS011;9315;52.624;13.544;2023-12-20T01:23:35;19.40;;;9.10;;
18376;SDS011;9315;52.624;13.544;2023-12-20T01:26:02;21.17;;;9.63;;
18376;SDS011;9315;52.624;13.544;2023-12-20T01:28:31;18.90;;;9.17;;
18376;SDS011;9315;52.624;13.544;2023-12-20T01:30:58;22.87;;;9.80;;
18376;SDS011;9315;52.624;13.544;2023-12-20T01:33:26;26.37;;;10.83;;
18376;SDS011;9315;52.624;13.544;2023-12-20T01:35:53;25.13;;;10.03;;
18376;SDS011;9315;52.624;13.544;2023-12-20T01:38:21;27.20;;;10.00;;
18376;SDS011;9315;52.624;13.544;2023-12-20T01:40:48;27.90;;;9.53;;
18376;SDS011;9315;52.624;13.544;2023-12-20T01:43:16;24.13;;;9.40;;
18376;SDS011;9315;52.624;13.544;2023-12-20T01:45:43;20.23;;;8.57;;
18376;SDS011;9315;52.624;13.544;2023-12-20T01:48:11;21.80;;;9.10;;
18376;SDS011;9315;52.624;13.544;2023-12-20T01:50:38;21.43;;;8.47;;
18376;SDS011;9315;52.624;13.544;2023-12-20T01:53:07;28.23;;;10.77;;
18376;SDS011;9315;52.624;13.544;2023-12-20T01:55:41;25.23;;;9.87;;
18376;SDS011;9315;52.624;13.544;2023-12-20T01:58:09;23.50;;;9.77;;
18376;SDS011;9315;52.624;13.544;2023-12-20T02:00:37;16.03;;;7.00;;
18376;SDS011;9315;52.624;13.544;2023-12-20T02:03:05;17.87;;;8.93;;
18376;SDS011;9315;52.624;13.544;2023-12-20T02:05:34;20.03;;;8.30;;
18376;SDS011;9315;52.624;13.544;2023-12-20T02:08:03;16.20;;;6.70;;
18376;SDS011;9315;52.624;13.544;2023-12-20T02:10:34;17.07;;;6.83;;
18376;SDS011;9315;52.624;13.544;2023-12-20T02:13:03;15.00;;;6.83;;
18376;SDS011;9315;52.624;13.544;2023-12-20T02:15:31;13.83;;;7.10;;
18376;SDS011;9315;52.624;13.544;2023-12-20T02:17:58;13.20;;;7.13;;
18376;SDS011;9315;52.624;13.544;2023-12-20T02:20:26;13.93;;;6.50;;
18376;SDS011;9315;52.624;13.544;2023-12-20T02:22:53;17.30;;;7.63;;
18376;SDS011;9315;52.624;13.544;2023-12-20T02:25:20;15.47;;;7.10;;
18376;SDS011;9315;52.624;13.544;2023-12-20T02:27:48;12.90;;;6.00;;
18376;SDS011;9315;52.624;13.544;2023-12-20T02:30:16;16.00;;;6.93;;
18376;SDS011;9315;52.624;13.544;2023-12-20T02:32:44;11.77;;;5.70;;
18376;SDS011;9315;52.624;13.544;2023-12-20T02:35:11;12.40;;;6.33;;
18376;SDS011;9315;52.624;13.544;2023-12-20T02:37:39;14.43;;;6.97;;
18376;SDS011;9315;52.624;13.544;2023-12-20T02:40:06;12.53;;;6.03;;
18376;SDS011;9315;52.624;13.544;2023-12-20T02:42:34;11.97;;;6.33;;
18376;SDS011;9315;52.624;13.544;2023-12-20T02:45:02;16.83;;;6.67;;
18376;SDS011;9315;52.624;13.544;2023-12-20T02:47:30;14.33;;;6.20;;
18376;SDS011;9315;52.624;13.544;2023-12-20T02:49:57;13.40;;;5.57;;
18376;SDS011;9315;52.624;13.544;2023-12-20T02:52:25;18.77;;;6.30;;
18376;SDS011;9315;52.624;13.544;2023-12-20T02:54:55;14.03;;;6.63;;
18376;SDS011;9315;52.624;13.544;2023-12-20T02:57:23;13.83;;;6.00;;
18376;SDS011;9315;52.624;13.544;2023-12-20T02:59:50;15.57;;;6.33;;
18376;SDS011;9315;52.624;13.544;2023-12-20T03:02:17;14.43;;;5.77;;
18376;SDS011;9315;52.624;13.544;2023-12-20T03:04:45;13.27;;;4.67;;
18376;SDS011;9315;52.624;13.544;2023-12-20T03:07:12;10.97;;;5.23;;
18376;SDS011;9315;52.624;13.544;2023-12-20T03:09:40;13.80;;;5.10;;
18376;SDS011;9315;52.624;13.544;2023-12-20T03:12:27;15.90;;;5.00;;
18376;SDS011;9315;52.624;13.544;2023-12-20T03:14:54;13.03;;;5.23;;
18376;SDS011;9315;52.624;13.544;2023-12-20T03:17:22;12.33;;;4.93;;
18376;SDS011;9315;52.624;13.544;2023-12-20T03:19:49;15.37;;;4.67;;
18376;SDS011;9315;52.624;13.544;2023-12-20T03:22:17;14.10;;;4.10;;
18376;SDS011;9315;52.624;13.544;2023-12-20T03:24:44;10.90;;;4.20;;
18376;SDS011;9315;52.624;13.544;2023-12-20T03:27:11;12.87;;;4.37;;
18376;SDS011;9315;52.624;13.544;2023-12-20T03:29:39;6.97;;;3.73;;
18376;SDS011;9315;52.624;13.544;2023-12-20T03:32:06;11.83;;;2.90;;
18376;SDS011;9315;52.624;13.544;2023-12-20T03:34:35;14.00;;;2.70;;
18376;SDS011;9315;52.624;13.544;2023-12-20T03:37:03;14.10;;;3.13;;
18376;SDS011;9315;52.624;13.544;2023-12-20T03:39:31;8.07;;;2.87;;
18376;SDS011;9315;52.624;13.544;2023-12-20T03:41:59;13.23;;;3.13;;
18376;SDS011;9315;52.624;13.544;2023-12-20T03:44:26;11.97;;;3.27;;
18376;SDS011;9315;52.624;13.544;2023-12-20T03:46:53;10.70;;;2.97;;
18376;SDS011;9315;52.624;13.544;2023-12-20T03:49:21;10.20;;;2.90;;
18376;SDS011;9315;52.624;13.544;2023-12-20T03:51:50;14.83;;;2.87;;
18376;SDS011;9315;52.624;13.544;2023-12-20T03:54:20;12.50;;;2.90;;
18376;SDS011;9315;52.624;13.544;2023-12-20T03:56:47;17.37;;;3.83;;
18376;SDS011;9315;52.624;13.544;2023-12-20T03:59:15;13.17;;;3.60;;
18376;SDS011;9315;52.624;13.544;2023-12-20T04:01:43;12.27;;;2.83;;
18376;SDS011;9315;52.624;13.544;2023-12-20T04:04:11;13.87;;;3.33;;
18376;SDS011;9315;52.624;13.544;2023-12-20T04:06:40;13.73;;;3.80;;
18376;SDS011;9315;52.624;13.544;2023-12-20T04:09:08;17.33;;;3.77;;
18376;SDS011;9315;52.624;13.544;2023-12-20T04:11:38;12.60;;;2.17;;
18376;SDS011;9315;52.624;13.544;2023-12-20T04:14:06;10.37;;;2.90;;
18376;SDS011;9315;52.624;13.544;2023-12-20T04:16:34;14.83;;;3.30;;
18376;SDS011;9315;52.624;13.544;2023-12-20T04:19:01;18.37;;;3.87;;
18376;SDS011;9315;52.624;13.544;2023-12-20T04:21:29;14.63;;;3.63;;
18376;SDS011;9315;52.624;13.544;2023-12-20T04:23:56;22.07;;;3.83;;
18376;SDS011;9315;52.624;13.544;2023-12-20T04:26:24;14.30;;;3.30;;
18376;SDS011;9315;52.624;13.544;2023-12-20T04:28:51;18.27;;;3.97;;
18376;SDS011;9315;52.624;13.544;2023-12-20T04:31:20;22.87;;;4.07;;
18376;SDS011;9315;52.624;13.544;2023-12-20T04:33:48;19.17;;;3.67;;
18376;SDS011;9315;52.624;13.544;2023-12-20T04:36:15;24.27;;;4.43;;
18376;SDS011;9315;52.624;13.544;2023-12-20T04:38:43;13.20;;;3.27;;
18376;SDS011;9315;52.624;13.544;2023-12-20T04:41:10;13.77;;;3.53;;
18376;SDS011;9315;52.624;13.544;2023-12-20T04:43:40;23.23;;;3.43;;
18376;SDS011;9315;52.624;13.544;2023-12-20T04:46:07;13.97;;;2.80;;
18376;SDS011;9315;52.624;13.544;2023-12-20T04:48:34;11.57;;;3.53;;
18376;SDS011;9315;52.624;13.544;2023-12-20T04:51:02;16.30;;;3.27;;
18376;SDS011;9315;52.624;13.544;2023-12-20T04:53:30;19.20;;;2.93;;
18376;SDS011;9315;52.624;13.544;2023-12-20T04:55:57;10.93;;;2.73;;
18376;SDS011;9315;52.624;13.544;2023-12-20T04:58:24;14.33;;;2.87;;
18376;SDS011;9315;52.624;13.544;2023-12-20T05:00:52;12.20;;;3.07;;
18376;SDS011;9315;52.624;13.544;2023-12-20T05:03:20;11.57;;;2.77;;
18376;SDS011;9315;52.624;13.544;2023-12-20T05:05:47;11.93;;;2.70;;
18376;SDS011;9315;52.624;13.544;2023-12-20T05:08:18;14.03;;;2.50;;
18376;SDS011;9315;52.624;13.544;2023-12-20T05:10:46;19.20;;;2.90;;
18376;SDS011;9315;52.624;13.544;2023-12-20T05:13:14;14.37;;;2.70;;
18376;SDS011;9315;52.624;13.544;2023-12-20T05:15:42;13.20;;;2.03;;
18376;SDS011;9315;52.624;13.544;2023-12-20T05:18:09;20.07;;;2.73;;
18376;SDS011;9315;52.624;13.544;2023-12-20T05:20:37;17.07;;;2.80;;
18376;SDS011;9315;52.624;13.544;2023-12-20T05:23:05;23.23;;;3.60;;
18376;SDS011;9315;52.624;13.544;2023-12-20T05:25:33;11.20;;;2.47;;
18376;SDS011;9315;52.624;13.544;2023-12-20T05:28:00;19.07;;;3.57;;
18376;SDS011;9315;52.624;13.544;2023-12-20T05:30:28;16.07;;;3.53;;
18376;SDS011;9315;52.624;13.544;2023-12-20T05:32:55;13.50;;;2.83;;
18376;SDS011;9315;52.624;13.544;2023-12-20T05:35:23;12.97;;;2.83;;
18376;SDS011;9315;52.624;13.544;2023-12-20T05:37:53;18.53;;;2.40;;
18376;SDS011;9315;52.624;13.544;2023-12-20T05:40:21;16.03;;;2.60;;
18376;SDS011;9315;52.624;13.544;2023-12-20T05:42:48;11.20;;;2.50;;
18376;SDS011;9315;52.624;13.544;2023-12-20T05:45:16;14.80;;;2.30;;
18376;SDS011;9315;52.624;13.544;2023-12-20T05:47:43;12.00;;;2.93;;
18376;SDS011;9315;52.624;13.544;2023-12-20T05:50:11;13.23;;;2.50;;
18376;SDS011;9315;52.624;13.544;2023-12-20T05:52:38;12.40;;;2.37;;
18376;SDS011;9315;52.624;13.544;2023-12-20T05:55:06;15.00;;;2.40;;
18376;SDS011;9315;52.624;13.544;2023-12-20T05:57:34;18.83;;;2.73;;
18376;SDS011;9315;52.624;13.544;2023-12-20T06:00:02;19.03;;;2.30;;
18376;SDS011;9315;52.624;13.544;2023-12-20T06:02:30;14.93;;;2.27;;
18376;SDS011;9315;52.624;13.544;2023-12-20T06:04:57;17.00;;;2.47;;
18376;SDS011;9315;52.624;13.544;2023-12-20T06:07:25;21.70;;;2.60;;
18376;SDS011;9315;52.624;13.544;2023-12-20T06:09:52;16.30;;;2.40;;
18376;SDS011;9315;52.624;13.544;2023-12-20T06:12:20;11.53;;;2.67;;
18376;SDS011;9315;52.624;13.544;2023-12-20T06:14:48;16.20;;;2.90;;
18376;SDS011;9315;52.624;13.544;2023-12-20T06:17:15;15.17;;;2.10;;
18376;SDS011;9315;52.624;13.544;2023-12-20T06:19:42;17.73;;;2.47;;
18376;SDS011;9315;52.624;13.544;2023-12-20T06:22:11;16.57;;;2.50;;
18376;SDS011;9315;52.624;13.544;2023-12-20T06:24:39;11.27;;;2.47;;
18376;SDS011;9315;52.624;13.544;2023-12-20T06:27:06;14.80;;;2.00;;
18376;SDS011;9315;52.624;13.544;2023-12-20T06:29:34;12.83;;;2.37;;
18376;SDS011;9315;52.624;13.544;2023-12-20T06:32:02;11.33;;;1.63;;
18376;SDS011;9315;52.624;13.544;2023-12-20T06:34:31;15.63;;;2.30;;
18376;SDS011;9315;52.624;13.544;2023-12-20T06:36:59;15.13;;;2.10;;
18376;SDS011;9315;52.624;13.544;2023-12-20T06:39:26;15.57;;;2.23;;
18376;SDS011;9315;52.624;13.544;2023-12-20T06:41:54;9.83;;;1.83;;
18376;SDS011;9315;52.624;13.544;2023-12-20T06:44:22;12.23;;;2.03;;
18376;SDS011;9315;52.624;13.544;2023-12-20T06:46:49;10.70;;;2.20;;
18376;SDS011;9315;52.624;13.544;2023-12-20T06:49:17;12.47;;;2.30;;
18376;SDS011;9315;52.624;13.544;2023-12-20T06:51:45;11.90;;;1.87;;
18376;SDS011;9315;52.624;13.544;2023-12-20T06:54:15;11.03;;;1.97;;
18376;SDS011;9315;52.624;13.544;2023-12-20T06:56:43;13.53;;;2.17;;
18376;SDS011;9315;52.624;13.544;2023-12-20T06:59:10;18.00;;;2.03;;
18376;SDS011;9315;52.624;13.544;2023-12-20T07:01:38;9.77;;;2.10;;
18376;SDS011;9315;52.624;13.544;2023-12-20T07:04:05;8.23;;;2.03;;
18376;SDS011;9315;52.624;13.544;2023-12-20T07:06:33;10.60;;;2.10;;
18376;SDS011;9315;52.624;13.544;2023-12-20T07:09:00;7.67;;;1.77;;
18376;SDS011;9315;52.624;13.544;2023-12-20T07:11:28;22.80;;;2.87;;
18376;SDS011;9315;52.624;13.544;2023-12-20T07:13:56;11.50;;;2.10;;
18376;SDS011;9315;52.624;13.544;2023-12-20T07:16:23;16.10;;;2.37;;
18376;SDS011;9315;52.624;13.544;2023-12-20T07:18:51;15.73;;;2.30;;
18376;SDS011;9315;52.624;13.544;2023-12-20T07:21:19;10.90;;;1.77;;
18376;SDS011;9315;52.624;13.544;2023-12-20T07:23:47;14.53;;;2.13;;
18376;SDS011;9315;52.624;13.544;2023-12-20T07:26:15;15.27;;;2.67;;
18376;SDS011;9315;52.624;13.544;2023-12-20T07:28:42;13.83;;;1.97;;
18376;SDS011;9315;52.624;13.544;2023-12-20T07:31:10;14.63;;;2.30;;
18376;SDS011;9315;52.624;13.544;2023-12-20T07:33:38;6.23;;;1.60;;
18376;SDS011;9315;52.624;13.544;2023-12-20T07:36:06;14.43;;;3.07;;
18376;SDS011;9315;52.624;13.544;2023-12-20T07:38:34;8.80;;;2.50;;
18376;SDS011;9315;52.624;13.544;2023-12-20T07:41:02;14.07;;;2.20;;
18376;SDS011;9315;52.624;13.544;2023-12-20T07:43:29;11.17;;;2.40;;
18376;SDS011;9315;52.624;13.544;2023-12-20T07:45:57;13.20;;;2.80;;
18376;SDS011;9315;52.624;13.544;2023-12-20T07:48:35;13.77;;;2.40;;
18376;SDS011;9315;52.624;13.544;2023-12-20T07:51:03;11.20;;;2.10;;
18376;SDS011;9315;52.624;13.544;2023-12-20T07:53:33;18.70;;;2.50;;
18376;SDS011;9315;52.624;13.544;2023-12-20T07:56:01;12.23;;;2.30;;
18376;SDS011;9315;52.624;13.544;2023-12-20T07:58:43;15.03;;;2.07;;
18376;SDS011;9315;52.624;13.544;2023-12-20T08:01:18;12.37;;;2.53;;
18376;SDS011;9315;52.624;13.544;2023-12-20T08:03:48;15.57;;;2.13;;
18376;SDS011;9315;52.624;13.544;2023-12-20T08:06:17;12.87;;;2.30;;
18376;SDS011;9315;52.624;13.544;2023-12-20T08:08:45;12.60;;;2.23;;
18376;SDS011;9315;52.624;13.544;2023-12-20T08:11:26;14.10;;;2.10;;
18376;SDS011;9315;52.624;13.544;2023-12-20T08:13:54;9.03;;;2.10;;
18376;SDS011;9315;52.624;13.544;2023-12-20T08:16:22;9.43;;;1.87;;
18376;SDS011;9315;52.624;13.544;2023-12-20T08:18:50;11.47;;;1.70;;
18376;SDS011;9315;52.624;13.544;2023-12-20T08:21:17;7.53;;;1.63;;
18376;SDS011;9315;52.624;13.544;2023-12-20T08:23:46;14.10;;;2.20;;
18376;SDS011;9315;52.624;13.544;2023-12-20T08:26:14;15.43;;;1.70;;
18376;SDS011;9315;52.624;13.544;2023-12-20T08:28:50;9.20;;;1.80;;
18376;SDS011;9315;52.624;13.544;2023-12-20T08:31:25;7.97;;;1.60;;
18376;SDS011;9315;52.624;13.544;2023-12-20T08:33:52;10.87;;;1.37;;
18376;SDS011;9315;52.624;13.544;2023-12-20T08:36:20;8.87;;;2.07;;
18376;SDS011;9315;52.624;13.544;2023-12-20T08:38:50;14.30;;;2.10;;
18376;SDS011;9315;52.624;13.544;2023-12-20T08:41:18;18.70;;;2.20;;
18376;SDS011;9315;52.624;13.544;2023-12-20T08:43:47;18.73;;;3.27;;
18376;SDS011;9315;52.624;13.544;2023-12-20T08:46:14;12.33;;;2.00;;
18376;SDS011;9315;52.624;13.544;2023-12-20T08:48:42;15.07;;;2.10;;
18376;SDS011;9315;52.624;13.544;2023-12-20T08:51:12;9.83;;;1.63;;
18376;SDS011;9315;52.624;13.544;2023-12-20T08:53:43;13.53;;;1.90;;
18376;SDS011;9315;52.624;13.544;2023-12-20T08:56:12;9.07;;;1.63;;
18376;SDS011;9315;52.624;13.544;2023-12-20T08:58:39;19.07;;;2.40;;
18376;SDS011;9315;52.624;13.544;2023-12-20T09:01:07;8.03;;;1.60;;
18376;SDS011;9315;52.624;13.544;2023-12-20T09:03:34;11.03;;;1.57;;
18376;SDS011;9315;52.624;13.544;2023-12-20T09:06:05;17.37;;;2.17;;
18376;SDS011;9315;52.624;13.544;2023-12-20T09:08:33;8.00;;;1.60;;
18376;SDS011;9315;52.624;13.544;2023-12-20T09:11:01;8.27;;;1.53;;
18376;SDS011;9315;52.624;13.544;2023-12-20T09:13:29;9.10;;;1.47;;
18376;SDS011;9315;52.624;13.544;2023-12-20T09:15:58;10.60;;;1.57;;
18376;SDS011;9315;52.624;13.544;2023-12-20T09:18:26;8.77;;;1.60;;
18376;SDS011;9315;52.624;13.544;2023-12-20T09:20:54;12.90;;;1.57;;
18376;SDS011;9315;52.624;13.544;2023-12-20T09:23:22;12.00;;;1.83;;
18376;SDS011;9315;52.624;13.544;2023-12-20T09:25:49;12.30;;;2.07;;
18376;SDS011;9315;52.624;13.544;2023-12-20T09:28:21;8.30;;;1.37;;
18376;SDS011;9315;52.624;13.544;2023-12-20T09:30:48;9.43;;;1.73;;
18376;SDS011;9315;52.624;13.544;2023-12-20T09:33:17;13.67;;;2.00;;
18376;SDS011;9315;52.624;13.544;2023-12-20T09:35:44;13.57;;;1.80;;
18376;SDS011;9315;52.624;13.544;2023-12-20T09:38:12;11.50;;;1.60;;
18376;SDS011;9315;52.624;13.544;2023-12-20T09:40:42;12.47;;;1.87;;
18376;SDS011;9315;52.624;13.544;2023-12-20T09:43:17;11.80;;;1.93;;
18376;SDS011;9315;52.624;13.544;2023-12-20T09:45:47;10.87;;;1.80;;
18376;SDS011;9315;52.624;13.544;2023-12-20T09:48:17;14.67;;;2.40;;
18376;SDS011;9315;52.624;13.544;2023-12-20T09:50:46;12.97;;;1.93;;
18376;SDS011;9315;52.624;13.544;2023-12-20T09:53:19;10.90;;;1.90;;
18376;SDS011;9315;52.624;13.544;2023-12-20T09:55:51;11.70;;;1.20;;
18376;SDS011;9315;52.624;13.544;2023-12-20T09:58:19;10.70;;;1.83;;
18376;SDS011;9315;52.624;13.544;2023-12-20T10:00:47;9.93;;;1.80;;
18376;SDS011;9315;52.624;13.544;2023-12-20T10:03:15;11.50;;;1.90;;
18376;SDS011;9315;52.624;13.544;2023-12-20T10:05:43;8.50;;;2.00;;
18376;SDS011;9315;52.624;13.544;2023-12-20T10:08:13;12.80;;;2.10;;
18376;SDS011;9315;52.624;13.544;2023-12-20T10:10:41;11.37;;;1.87;;
18376;SDS011;9315;52.624;13.544;2023-12-20T10:13:14;9.37;;;1.57;;
18376;SDS011;9315;52.624;13.544;2023-12-20T10:15:42;9.93;;;1.60;;
18376;SDS011;9315;52.624;13.544;2023-12-20T10:18:11;11.47;;;1.80;;
18376;SDS011;9315;52.624;13.544;2023-12-20T10:20:40;12.10;;;2.10;;
18376;SDS011;9315;52.624;13.544;2023-12-20T10:23:10;9.93;;;1.83;;
18376;SDS011;9315;52.624;13.544;2023-12-20T10:25:41;11.23;;;1.93;;
18376;SDS011;9315;52.624;13.544;2023-12-20T10:30:49;8.03;;;1.60;;
18376;SDS011;9315;52.624;13.544;2023-12-20T10:33:27;12.40;;;1.60;;
18376;SDS011;9315;52.624;13.544;2023-12-20T10:36:04;9.30;;;2.07;;
18376;SDS011;9315;52.624;13.544;2023-12-20T10:38:32;10.67;;;1.83;;
18376;SDS011;9315;52.624;13.544;2023-12-20T10:41:03;14.37;;;2.03;;
18376;SDS011;9315;52.624;13.544;2023-12-20T10:43:32;16.57;;;1.90;;
18376;SDS011;9315;52.624;13.544;2023-12-20T10:46:00;13.30;;;1.97;;
18376;SDS011;9315;52.624;13.544;2023-12-20T10:48:30;13.20;;;1.80;;
18376;SDS011;9315;52.624;13.544;2023-12-20T10:50:59;12.20;;;1.80;;
18376;SDS011;9315;52.624;13.544;2023-12-20T10:53:27;15.87;;;2.40;;
18376;SDS011;9315;52.624;13.544;2023-12-20T10:55:57;15.43;;;2.60;;
18376;SDS011;9315;52.624;13.544;2023-12-20T10:58:29;15.53;;;2.00;;
18376;SDS011;9315;52.624;13.544;2023-12-20T11:01:01;8.20;;;2.00;;
18376;SDS011;9315;52.624;13.544;2023-12-20T11:03:32;12.33;;;2.47;;
18376;SDS011;9315;52.624;13.544;2023-12-20T11:06:10;11.50;;;2.07;;
18376;SDS011;9315;52.624;13.544;2023-12-20T11:14:47;11.83;;;1.90;;
18376;SDS011;9315;52.624;13.544;2023-12-20T11:17:19;8.47;;;1.67;;
18376;SDS011;9315;52.624;13.544;2023-12-20T11:22:24;12.80;;;1.70;;
18376;SDS011;9315;52.624;13.544;2023-12-20T11:24:53;15.07;;;1.57;;
18376;SDS011;9315;52.624;13.544;2023-12-20T11:27:24;10.83;;;1.60;;
18376;SDS011;9315;52.624;13.544;2023-12-20T11:29:52;12.97;;;1.63;;
18376;SDS011;9315;52.624;13.544;2023-12-20T11:35:01;11.83;;;2.37;;
18376;SDS011;9315;52.624;13.544;2023-12-20T11:37:52;10.53;;;1.77;;
18376;SDS011;9315;52.624;13.544;2023-12-20T11:40:20;13.97;;;1.70;;
18376;SDS011;9315;52.624;13.544;2023-12-20T11:42:50;14.40;;;2.20;;
18376;SDS011;9315;52.624;13.544;2023-12-20T11:45:23;12.77;;;2.27;;
18376;SDS011;9315;52.624;13.544;2023-12-20T11:47:56;11.93;;;1.93;;
18376;SDS011;9315;52.624;13.544;2023-12-20T11:50:24;9.43;;;1.97;;
18376;SDS011;9315;52.624;13.544;2023-12-20T11:52:53;10.93;;;2.23;;
18376;SDS011;9315;52.624;13.544;2023-12-20T11:55:22;14.03;;;2.50;;
18376;SDS011;9315;52.624;13.544;2023-12-20T11:57:51;10.70;;;1.87;;
18376;SDS011;9315;52.624;13.544;2023-12-20T12:00:19;11.43;;;2.57;;
18376;SDS011;9315;52.624;13.544;2023-12-20T12:02:57;14.67;;;2.30;;
18376;SDS011;9315;52.624;13.544;2023-12-20T12:05:25;12.77;;;2.60;;
18376;SDS011;9315;52.624;13.544;2023-12-20T12:07:53;8.53;;;1.70;;
18376;SDS011;9315;52.624;13.544;2023-12-20T12:10:21;11.63;;;2.60;;
18376;SDS011;9315;52.624;13.544;2023-12-20T12:12:49;9.53;;;2.60;;
18376;SDS011;9315;52.624;13.544;2023-12-20T12:15:17;7.37;;;1.90;;
18376;SDS011;9315;52.624;13.544;2023-12-20T12:17:52;11.80;;;2.40;;
18376;SDS011;9315;52.624;13.544;2023-12-20T12:20:24;9.30;;;1.40;;
18376;SDS011;9315;52.624;13.544;2023-12-20T12:22:58;13.87;;;2.30;;
18376;SDS011;9315;52.624;13.544;2023-12-20T12:25:34;12.43;;;1.93;;
18376;SDS011;9315;52.624;13.544;2023-12-20T12:28:09;11.43;;;2.20;;
18376;SDS011;9315;52.624;13.544;2023-12-20T12:30:37;7.87;;;2.10;;
18376;SDS011;9315;52.624;13.544;2023-12-20T12:33:15;11.53;;;3.17;;
18376;SDS011;9315;52.624;13.544;2023-12-20T12:35:44;9.93;;;2.43;;
18376;SDS011;9315;52.624;13.544;2023-12-20T12:38:11;16.27;;;3.47;;
18376;SDS011;9315;52.624;13.544;2023-12-20T12:40:38;12.23;;;4.83;;
18376;SDS011;9315;52.624;13.544;2023-12-20T12:43:10;16.93;;;3.27;;
18376;SDS011;9315;52.624;13.544;2023-12-20T12:45:39;9.50;;;1.90;;
18376;SDS011;9315;52.624;13.544;2023-12-20T12:48:07;7.63;;;1.97;;
18376;SDS011;9315;52.624;13.544;2023-12-20T12:50:35;11.57;;;2.03;;
18376;SDS011;9315;52.624;13.544;2023-12-20T12:53:05;10.97;;;4.23;;
18376;SDS011;9315;52.624;13.544;2023-12-20T12:55:34;12.07;;;3.30;;
18376;SDS011;9315;52.624;13.544;2023-12-20T12:58:06;16.80;;;4.80;;
18376;SDS011;9315;52.624;13.544;2023-12-20T13:00:33;15.33;;;3.83;;
18376;SDS011;9315;52.624;13.544;2023-12-20T13:03:01;18.53;;;3.60;;
18376;SDS011;9315;52.624;13.544;2023-12-20T13:05:30;14.97;;;4.10;;
18376;SDS011;9315;52.624;13.544;2023-12-20T13:08:04;17.13;;;3.60;;
18376;SDS011;9315;52.624;13.544;2023-12-20T13:10:33;15.40;;;3.03;;
18376;SDS011;9315;52.624;13.544;2023-12-20T13:13:00;10.90;;;2.90;;
18376;SDS011;9315;52.624;13.544;2023-12-20T13:15:28;14.73;;;3.50;;
18376;SDS011;9315;52.624;13.544;2023-12-20T13:17:55;12.23;;;2.80;;
18376;SDS011;9315;52.624;13.544;2023-12-20T13:20:23;16.00;;;2.67;;
18376;SDS011;9315;52.624;13.544;2023-12-20T13:22:53;16.70;;;2.93;;
18376;SDS011;9315;52.624;13.544;2023-12-20T13:25:21;7.57;;;2.07;;
18376;SDS011;9315;52.624;13.544;2023-12-20T13:27:49;4.73;;;1.17;;
18376;SDS011;9315;52.624;13.544;2023-12-20T13:30:19;6.33;;;1.40;;
18376;SDS011;9315;52.624;13.544;2023-12-20T13:32:47;4.23;;;1.00;;
18376;SDS011;9315;52.624;13.544;2023-12-20T13:35:15;6.20;;;1.00;;
18376;SDS011;9315;52.624;13.544;2023-12-20T13:37:43;3.67;;;0.90;;
18376;SDS011;9315;52.624;13.544;2023-12-20T13:40:11;4.60;;;1.20;;
18376;SDS011;9315;52.624;13.544;2023-12-20T13:42:39;3.37;;;1.00;;
18376;SDS011;9315;52.624;13.544;2023-12-20T13:45:07;4.27;;;1.30;;
18376;SDS011;9315;52.624;13.544;2023-12-20T13:47:35;8.20;;;2.20;;
18376;SDS011;9315;52.624;13.544;2023-12-20T13:50:03;6.47;;;1.60;;
18376;SDS011;9315;52.624;13.544;2023-12-20T13:52:32;4.53;;;1.37;;
18376;SDS011;9315;52.624;13.544;2023-12-20T13:55:04;3.50;;;0.87;;
18376;SDS011;9315;52.624;13.544;2023-12-20T13:57:35;4.10;;;1.10;;
18376;SDS011;9315;52.624;13.544;2023-12-20T14:00:20;6.87;;;1.40;;
18376;SDS011;9315;52.624;13.544;2023-12-20T14:02:48;6.03;;;1.23;;
18376;SDS011;9315;52.624;13.544;2023-12-20T14:05:16;5.47;;;1.00;;
18376;SDS011;9315;52.624;13.544;2023-12-20T14:07:45;3.97;;;0.80;;
18376;SDS011;9315;52.624;13.544;2023-12-20T14:10:13;4.07;;;0.60;;
18376;SDS011;9315;52.624;13.544;2023-12-20T14:12:44;6.93;;;1.00;;
18376;SDS011;9315;52.624;13.544;2023-12-20T14:15:11;2.17;;;0.60;;
18376;SDS011;9315;52.624;13.544;2023-12-20T14:17:40;3.60;;;0.97;;
18376;SDS011;9315;52.624;13.544;2023-12-20T14:20:11;8.30;;;0.73;;
18376;SDS011;9315;52.624;13.544;2023-12-20T14:22:40;5.13;;;1.00;;
18376;SDS011;9315;52.624;13.544;2023-12-20T14:25:11;2.33;;;0.60;;
18376;SDS011;9315;52.624;13.544;2023-12-20T14:27:41;8.43;;;0.90;;
18376;SDS011;9315;52.624;13.544;2023-12-20T14:30:11;7.33;;;0.80;;
18376;SDS011;9315;52.624;13.544;2023-12-20T14:32:41;3.27;;;0.53;;
18376;SDS011;9315;52.624;13.544;2023-12-20T14:35:09;5.27;;;0.87;;
18376;SDS011;9315;52.624;13.544;2023-12-20T14:37:37;3.87;;;0.73;;
18376;SDS011;9315;52.624;13.544;2023-12-20T14:40:14;3.53;;;0.80;;
18376;SDS011;9315;52.624;13.544;2023-12-20T14:42:46;2.60;;;0.50;;
18376;SDS011;9315;52.624;13.544;2023-12-20T14:45:14;4.57;;;0.70;;
18376;SDS011;9315;52.624;13.544;2023-12-20T14:47:43;4.53;;;0.70;;
18376;SDS011;9315;52.624;13.544;2023-12-20T14:50:11;4.50;;;0.60;;
18376;SDS011;9315;52.624;13.544;2023-12-20T14:52:46;4.70;;;0.60;;
18376;SDS011;9315;52.624;13.544;2023-12-20T14:55:13;1.10;;;0.40;;
18376;SDS011;9315;52.624;13.544;2023-12-20T14:57:44;3.70;;;0.93;;
18376;SDS011;9315;52.624;13.544;2023-12-20T15:00:12;5.87;;;0.50;;
18376;SDS011;9315;52.624;13.544;2023-12-20T15:02:43;5.00;;;0.40;;